sensor_id;sensor_type;location;lat;lon;timestamp;temperature;humidity
30047;DHT22;16878;52.542;13.426;2022-10-16T00:00:56;15.00;99.90
30047;DHT22;16878;52.542;13.426;2022-10-16T00:03:22;15.10;99.90
30047;DHT22;16878;52.542;13.426;2022-10-16T00:05:47;15.10;99.90
30047;DHT22;16878;52.542;13.426;2022-10-16T00:08:13;15.10;99.90
30047;DHT22;16878;52.542;13.426;2022-10-16T00:10:39;15.20;99.90
30047;DHT22;16878;52.542;13.426;2022-10-16T00:13:04;15.20;99.90
30047;DHT22;16878;52.542;13.426;2022-10-16T00:15:30;15.20;99.90
30047;DHT22;16878;52.542;13.426;2022-10-16T00:17:57;15.30;99.90
30047;DHT22;16878;52.542;13.426;2022-10-16T00:20:23;15.30;99.90
30047;DHT22;16878;52.542;13.426;2022-10-16T00:22:48;15.30;99.90
30047;DHT22;16878;52.542;13.426;2022-10-16T00:25:14;15.40;99.90
30047;DHT22;16878;52.542;13.426;2022-10-16T00:27:39;15.30;99.90
30047;DHT22;16878;52.542;13.426;2022-10-16T00:30:05;15.40;99.90
30047;DHT22;16878;52.542;13.426;2022-10-16T00:32:31;15.40;99.90
30047;DHT22;16878;52.542;13.426;2022-10-16T00:34:56;15.40;99.90
30047;DHT22;16878;52.542;13.426;2022-10-16T00:37:22;15.40;99.90
30047;DHT22;16878;52.542;13.426;2022-10-16T00:39:47;15.40;99.90
30047;DHT22;16878;52.542;13.426;2022-10-16T00:42:16;15.30;99.90
30047;DHT22;16878;52.542;13.426;2022-10-16T00:47:39;15.30;99.90
30047;DHT22;16878;52.542;13.426;2022-10-16T00:53:00;15.20;99.90
30047;DHT22;16878;52.542;13.426;2022-10-16T00:55:27;15.30;99.90
30047;DHT22;16878;52.542;13.426;2022-10-16T00:57:55;15.30;99.90
30047;DHT22;16878;52.542;13.426;2022-10-16T01:00:22;15.30;99.90
30047;DHT22;16878;52.542;13.426;2022-10-16T01:02:52;15.30;99.90
30047;DHT22;16878;52.542;13.426;2022-10-16T01:05:18;15.20;99.90
30047;DHT22;16878;52.542;13.426;2022-10-16T01:12:41;15.20;99.90
30047;DHT22;16878;52.542;13.426;2022-10-16T01:17:35;15.20;99.90
30047;DHT22;16878;52.542;13.426;2022-10-16T01:20:05;15.20;99.90
30047;DHT22;16878;52.542;13.426;2022-10-16T01:22:48;15.20;99.90
30047;DHT22;16878;52.542;13.426;2022-10-16T01:25:47;15.20;99.90
30047;DHT22;16878;52.542;13.426;2022-10-16T01:28:04;15.10;99.90
30047;DHT22;16878;52.542;13.426;2022-10-16T01:30:32;15.10;99.90
30047;DHT22;16878;52.542;13.426;2022-10-16T01:35:45;15.00;99.90
30047;DHT22;16878;52.542;13.426;2022-10-16T01:40:37;15.10;99.90
30047;DHT22;16878;52.542;13.426;2022-10-16T01:43:05;15.10;99.90
30047;DHT22;16878;52.542;13.426;2022-10-16T01:45:33;15.20;99.90
30047;DHT22;16878;52.542;13.426;2022-10-16T01:48:00;15.20;99.90
30047;DHT22;16878;52.542;13.426;2022-10-16T01:50:29;15.10;99.90
30047;DHT22;16878;52.542;13.426;2022-10-16T01:52:56;15.20;99.90
30047;DHT22;16878;52.542;13.426;2022-10-16T01:55:25;15.20;99.90
30047;DHT22;16878;52.542;13.426;2022-10-16T01:57:52;15.20;99.90
30047;DHT22;16878;52.542;13.426;2022-10-16T02:00:18;15.20;99.90
30047;DHT22;16878;52.542;13.426;2022-10-16T02:02:46;15.20;99.90
30047;DHT22;16878;52.542;13.426;2022-10-16T02:07:42;15.30;99.90
30047;DHT22;16878;52.542;13.426;2022-10-16T02:10:08;15.30;99.90
30047;DHT22;16878;52.542;13.426;2022-10-16T02:12:34;15.30;99.90
30047;DHT22;16878;52.542;13.426;2022-10-16T02:15:00;15.40;99.90
30047;DHT22;16878;52.542;13.426;2022-10-16T02:17:26;15.30;99.90
30047;DHT22;16878;52.542;13.426;2022-10-16T02:19:52;15.30;99.90
30047;DHT22;16878;52.542;13.426;2022-10-16T02:22:23;15.40;99.90
30047;DHT22;16878;52.542;13.426;2022-10-16T02:24:57;15.40;99.90
30047;DHT22;16878;52.542;13.426;2022-10-16T02:27:25;15.40;99.90
30047;DHT22;16878;52.542;13.426;2022-10-16T02:29:56;15.40;99.90
30047;DHT22;16878;52.542;13.426;2022-10-16T02:32:24;15.40;99.90
30047;DHT22;16878;52.542;13.426;2022-10-16T02:34:51;15.40;99.90
30047;DHT22;16878;52.542;13.426;2022-10-16T02:37:17;15.40;99.90
30047;DHT22;16878;52.542;13.426;2022-10-16T02:39:43;15.40;99.90
30047;DHT22;16878;52.542;13.426;2022-10-16T02:42:14;15.40;99.90
30047;DHT22;16878;52.542;13.426;2022-10-16T02:44:40;15.40;99.90
30047;DHT22;16878;52.542;13.426;2022-10-16T02:47:06;15.40;99.90
30047;DHT22;16878;52.542;13.426;2022-10-16T02:49:31;15.30;99.90
30047;DHT22;16878;52.542;13.426;2022-10-16T02:51:57;15.40;99.90
30047;DHT22;16878;52.542;13.426;2022-10-16T02:54:22;15.30;99.90
30047;DHT22;16878;52.542;13.426;2022-10-16T02:56:49;15.40;99.90
30047;DHT22;16878;52.542;13.426;2022-10-16T02:59:14;15.40;99.90
30047;DHT22;16878;52.542;13.426;2022-10-16T03:01:40;15.30;99.90
30047;DHT22;16878;52.542;13.426;2022-10-16T03:04:05;15.30;99.90
30047;DHT22;16878;52.542;13.426;2022-10-16T03:06:31;15.30;99.90
30047;DHT22;16878;52.542;13.426;2022-10-16T03:08:56;15.30;99.90
30047;DHT22;16878;52.542;13.426;2022-10-16T03:11:22;15.20;99.90
30047;DHT22;16878;52.542;13.426;2022-10-16T03:13:47;15.10;99.90
30047;DHT22;16878;52.542;13.426;2022-10-16T03:16:13;15.10;99.90
30047;DHT22;16878;52.542;13.426;2022-10-16T03:18:38;15.00;99.90
30047;DHT22;16878;52.542;13.426;2022-10-16T03:21:04;15.00;99.90
30047;DHT22;16878;52.542;13.426;2022-10-16T03:23:29;15.00;99.90
30047;DHT22;16878;52.542;13.426;2022-10-16T03:25:55;15.00;99.90
30047;DHT22;16878;52.542;13.426;2022-10-16T03:28:20;15.00;99.90
30047;DHT22;16878;52.542;13.426;2022-10-16T03:30:46;15.00;99.90
30047;DHT22;16878;52.542;13.426;2022-10-16T03:33:11;14.90;99.90
30047;DHT22;16878;52.542;13.426;2022-10-16T03:35:37;14.90;99.90
30047;DHT22;16878;52.542;13.426;2022-10-16T03:38:02;14.80;99.90
30047;DHT22;16878;52.542;13.426;2022-10-16T03:40:28;14.80;99.90
30047;DHT22;16878;52.542;13.426;2022-10-16T03:42:54;14.80;99.90
30047;DHT22;16878;52.542;13.426;2022-10-16T03:45:22;14.70;99.90
30047;DHT22;16878;52.542;13.426;2022-10-16T03:47:48;14.80;99.90
30047;DHT22;16878;52.542;13.426;2022-10-16T03:50:14;14.70;99.90
30047;DHT22;16878;52.542;13.426;2022-10-16T03:52:39;14.80;99.90
30047;DHT22;16878;52.542;13.426;2022-10-16T03:55:05;14.70;99.90
30047;DHT22;16878;52.542;13.426;2022-10-16T03:57:31;14.80;99.90
30047;DHT22;16878;52.542;13.426;2022-10-16T03:59:56;14.70;99.90
30047;DHT22;16878;52.542;13.426;2022-10-16T04:02:22;14.80;99.90
30047;DHT22;16878;52.542;13.426;2022-10-16T04:04:47;14.80;99.90
30047;DHT22;16878;52.542;13.426;2022-10-16T04:07:13;14.80;99.90
30047;DHT22;16878;52.542;13.426;2022-10-16T04:09:38;14.80;99.90
30047;DHT22;16878;52.542;13.426;2022-10-16T04:12:04;14.80;99.90
30047;DHT22;16878;52.542;13.426;2022-10-16T04:14:29;14.80;99.90
30047;DHT22;16878;52.542;13.426;2022-10-16T04:16:54;14.80;99.90
30047;DHT22;16878;52.542;13.426;2022-10-16T04:19:20;14.80;99.90
30047;DHT22;16878;52.542;13.426;2022-10-16T04:21:45;14.80;99.90
30047;DHT22;16878;52.542;13.426;2022-10-16T04:24:11;14.80;99.90
30047;DHT22;16878;52.542;13.426;2022-10-16T04:26:37;14.70;99.90
30047;DHT22;16878;52.542;13.426;2022-10-16T04:29:02;14.80;99.90
30047;DHT22;16878;52.542;13.426;2022-10-16T04:31:28;14.80;99.90
30047;DHT22;16878;52.542;13.426;2022-10-16T04:33:53;14.70;99.90
30047;DHT22;16878;52.542;13.426;2022-10-16T04:36:19;14.70;99.90
30047;DHT22;16878;52.542;13.426;2022-10-16T04:38:44;14.80;99.90
30047;DHT22;16878;52.542;13.426;2022-10-16T04:41:10;14.80;99.90
30047;DHT22;16878;52.542;13.426;2022-10-16T04:43:36;14.70;99.90
30047;DHT22;16878;52.542;13.426;2022-10-16T04:46:01;14.70;99.90
30047;DHT22;16878;52.542;13.426;2022-10-16T04:48:30;14.70;99.90
30047;DHT22;16878;52.542;13.426;2022-10-16T04:50:55;14.70;99.90
30047;DHT22;16878;52.542;13.426;2022-10-16T04:53:21;14.60;99.90
30047;DHT22;16878;52.542;13.426;2022-10-16T04:55:46;14.60;99.90
30047;DHT22;16878;52.542;13.426;2022-10-16T04:58:12;14.60;99.90
30047;DHT22;16878;52.542;13.426;2022-10-16T05:00:37;14.60;99.90
30047;DHT22;16878;52.542;13.426;2022-10-16T05:03:03;14.50;99.90
30047;DHT22;16878;52.542;13.426;2022-10-16T05:05:32;14.50;99.90
30047;DHT22;16878;52.542;13.426;2022-10-16T05:07:58;14.50;99.90
30047;DHT22;16878;52.542;13.426;2022-10-16T05:10:23;14.50;99.90
30047;DHT22;16878;52.542;13.426;2022-10-16T05:12:49;14.50;99.90
30047;DHT22;16878;52.542;13.426;2022-10-16T05:15:16;14.50;99.90
30047;DHT22;16878;52.542;13.426;2022-10-16T05:17:42;14.50;99.90
30047;DHT22;16878;52.542;13.426;2022-10-16T05:20:07;14.50;99.90
30047;DHT22;16878;52.542;13.426;2022-10-16T05:22:33;14.50;99.90
30047;DHT22;16878;52.542;13.426;2022-10-16T05:24:58;14.50;99.90
30047;DHT22;16878;52.542;13.426;2022-10-16T05:27:24;14.50;99.90
30047;DHT22;16878;52.542;13.426;2022-10-16T05:29:49;14.50;99.90
30047;DHT22;16878;52.542;13.426;2022-10-16T05:32:16;14.60;99.90
30047;DHT22;16878;52.542;13.426;2022-10-16T05:34:42;14.60;99.90
30047;DHT22;16878;52.542;13.426;2022-10-16T05:37:07;14.70;99.90
30047;DHT22;16878;52.542;13.426;2022-10-16T05:39:33;14.70;99.90
30047;DHT22;16878;52.542;13.426;2022-10-16T05:41:58;14.70;99.90
30047;DHT22;16878;52.542;13.426;2022-10-16T05:44:24;14.70;99.90
30047;DHT22;16878;52.542;13.426;2022-10-16T05:46:49;14.70;99.90
30047;DHT22;16878;52.542;13.426;2022-10-16T05:49:15;14.70;99.90
30047;DHT22;16878;52.542;13.426;2022-10-16T05:51:41;14.80;99.90
30047;DHT22;16878;52.542;13.426;2022-10-16T05:54:07;14.80;99.90
30047;DHT22;16878;52.542;13.426;2022-10-16T05:56:32;14.80;99.90
30047;DHT22;16878;52.542;13.426;2022-10-16T05:58:58;14.90;99.90
30047;DHT22;16878;52.542;13.426;2022-10-16T06:01:23;14.90;99.90
30047;DHT22;16878;52.542;13.426;2022-10-16T06:03:52;14.90;99.90
30047;DHT22;16878;52.542;13.426;2022-10-16T06:06:21;14.80;99.90
30047;DHT22;16878;52.542;13.426;2022-10-16T06:08:47;14.80;99.90
30047;DHT22;16878;52.542;13.426;2022-10-16T06:11:16;14.80;99.90
30047;DHT22;16878;52.542;13.426;2022-10-16T06:13:42;14.90;99.90
30047;DHT22;16878;52.542;13.426;2022-10-16T06:16:09;14.90;99.90
30047;DHT22;16878;52.542;13.426;2022-10-16T06:18:34;15.00;99.90
30047;DHT22;16878;52.542;13.426;2022-10-16T06:21:06;15.00;99.90
30047;DHT22;16878;52.542;13.426;2022-10-16T06:23:32;15.00;99.90
30047;DHT22;16878;52.542;13.426;2022-10-16T06:26:04;15.00;99.90
30047;DHT22;16878;52.542;13.426;2022-10-16T06:28:29;15.10;99.90
30047;DHT22;16878;52.542;13.426;2022-10-16T06:30:58;15.10;99.90
30047;DHT22;16878;52.542;13.426;2022-10-16T06:33:24;15.10;99.90
30047;DHT22;16878;52.542;13.426;2022-10-16T06:35:49;15.20;99.90
30047;DHT22;16878;52.542;13.426;2022-10-16T06:38:15;15.20;99.90
30047;DHT22;16878;52.542;13.426;2022-10-16T06:40:40;15.20;99.90
30047;DHT22;16878;52.542;13.426;2022-10-16T06:43:06;15.30;99.90
30047;DHT22;16878;52.542;13.426;2022-10-16T06:45:31;15.30;99.90
30047;DHT22;16878;52.542;13.426;2022-10-16T06:47:57;15.30;99.90
30047;DHT22;16878;52.542;13.426;2022-10-16T06:50:22;15.30;99.90
30047;DHT22;16878;52.542;13.426;2022-10-16T06:52:48;15.40;99.90
30047;DHT22;16878;52.542;13.426;2022-10-16T06:55:14;15.40;99.90
30047;DHT22;16878;52.542;13.426;2022-10-16T06:57:40;15.40;99.90
30047;DHT22;16878;52.542;13.426;2022-10-16T07:00:06;15.40;99.90
30047;DHT22;16878;52.542;13.426;2022-10-16T07:02:31;15.50;99.90
30047;DHT22;16878;52.542;13.426;2022-10-16T07:04:57;15.50;99.90
30047;DHT22;16878;52.542;13.426;2022-10-16T07:07:22;15.70;99.90
30047;DHT22;16878;52.542;13.426;2022-10-16T07:09:50;15.70;99.90
30047;DHT22;16878;52.542;13.426;2022-10-16T07:12:15;15.90;99.90
30047;DHT22;16878;52.542;13.426;2022-10-16T07:14:41;16.10;99.90
30047;DHT22;16878;52.542;13.426;2022-10-16T07:17:06;16.20;99.90
30047;DHT22;16878;52.542;13.426;2022-10-16T07:19:32;16.30;99.90
30047;DHT22;16878;52.542;13.426;2022-10-16T07:21:57;16.40;99.90
30047;DHT22;16878;52.542;13.426;2022-10-16T07:24:23;16.50;99.90
30047;DHT22;16878;52.542;13.426;2022-10-16T07:26:48;16.60;99.90
30047;DHT22;16878;52.542;13.426;2022-10-16T07:29:15;16.60;99.90
30047;DHT22;16878;52.542;13.426;2022-10-16T07:31:41;16.60;99.90
30047;DHT22;16878;52.542;13.426;2022-10-16T07:34:07;16.60;99.90
30047;DHT22;16878;52.542;13.426;2022-10-16T07:36:32;16.70;99.90
30047;DHT22;16878;52.542;13.426;2022-10-16T07:38:58;16.70;99.90
30047;DHT22;16878;52.542;13.426;2022-10-16T07:41:23;16.70;99.90
30047;DHT22;16878;52.542;13.426;2022-10-16T07:43:50;16.70;99.90
30047;DHT22;16878;52.542;13.426;2022-10-16T07:46:16;16.80;99.90
30047;DHT22;16878;52.542;13.426;2022-10-16T07:48:42;16.90;99.90
30047;DHT22;16878;52.542;13.426;2022-10-16T07:51:11;16.90;99.90
30047;DHT22;16878;52.542;13.426;2022-10-16T07:53:37;16.90;99.90
30047;DHT22;16878;52.542;13.426;2022-10-16T07:56:04;16.80;99.90
30047;DHT22;16878;52.542;13.426;2022-10-16T07:58:29;16.80;99.90
30047;DHT22;16878;52.542;13.426;2022-10-16T08:00:55;16.80;99.90
30047;DHT22;16878;52.542;13.426;2022-10-16T08:03:21;16.80;99.90
30047;DHT22;16878;52.542;13.426;2022-10-16T08:05:46;16.80;99.90
30047;DHT22;16878;52.542;13.426;2022-10-16T08:08:12;16.80;99.90
30047;DHT22;16878;52.542;13.426;2022-10-16T08:10:38;16.80;99.90
30047;DHT22;16878;52.542;13.426;2022-10-16T08:13:03;16.80;99.90
30047;DHT22;16878;52.542;13.426;2022-10-16T08:15:29;16.90;99.90
30047;DHT22;16878;52.542;13.426;2022-10-16T08:17:55;17.00;99.90
30047;DHT22;16878;52.542;13.426;2022-10-16T08:20:21;17.00;99.90
30047;DHT22;16878;52.542;13.426;2022-10-16T08:22:47;17.10;99.90
30047;DHT22;16878;52.542;13.426;2022-10-16T08:25:12;17.10;99.90
30047;DHT22;16878;52.542;13.426;2022-10-16T08:27:38;17.20;99.90
30047;DHT22;16878;52.542;13.426;2022-10-16T08:30:03;17.20;99.90
30047;DHT22;16878;52.542;13.426;2022-10-16T08:32:29;17.20;99.90
30047;DHT22;16878;52.542;13.426;2022-10-16T08:34:54;17.30;99.90
30047;DHT22;16878;52.542;13.426;2022-10-16T08:37:20;17.30;99.90
30047;DHT22;16878;52.542;13.426;2022-10-16T08:39:46;17.30;99.90
30047;DHT22;16878;52.542;13.426;2022-10-16T08:50:21;17.20;99.90
30047;DHT22;16878;52.542;13.426;2022-10-16T08:52:40;17.40;99.90
30047;DHT22;16878;52.542;13.426;2022-10-16T08:55:06;17.50;99.90
30047;DHT22;16878;52.542;13.426;2022-10-16T08:57:36;17.50;99.90
30047;DHT22;16878;52.542;13.426;2022-10-16T09:00:08;17.40;99.90
30047;DHT22;16878;52.542;13.426;2022-10-16T09:02:41;17.40;99.90
30047;DHT22;16878;52.542;13.426;2022-10-16T09:07:55;17.40;99.90
30047;DHT22;16878;52.542;13.426;2022-10-16T09:10:26;17.40;99.90
30047;DHT22;16878;52.542;13.426;2022-10-16T09:13:10;17.60;99.90
30047;DHT22;16878;52.542;13.426;2022-10-16T09:18:22;18.10;99.90
30047;DHT22;16878;52.542;13.426;2022-10-16T09:20:57;18.10;99.90
30047;DHT22;16878;52.542;13.426;2022-10-16T09:23:26;18.10;99.90
30047;DHT22;16878;52.542;13.426;2022-10-16T09:25:52;18.00;99.90
30047;DHT22;16878;52.542;13.426;2022-10-16T09:28:18;18.00;99.90
30047;DHT22;16878;52.542;13.426;2022-10-16T09:30:44;18.00;99.90
30047;DHT22;16878;52.542;13.426;2022-10-16T09:33:10;18.10;99.90
30047;DHT22;16878;52.542;13.426;2022-10-16T09:35:37;18.10;99.90
30047;DHT22;16878;52.542;13.426;2022-10-16T09:38:04;18.00;99.90
30047;DHT22;16878;52.542;13.426;2022-10-16T09:45:36;18.00;99.90
30047;DHT22;16878;52.542;13.426;2022-10-16T09:48:09;17.90;99.90
30047;DHT22;16878;52.542;13.426;2022-10-16T09:50:36;18.00;99.90
30047;DHT22;16878;52.542;13.426;2022-10-16T09:53:11;18.00;99.90
30047;DHT22;16878;52.542;13.426;2022-10-16T09:55:47;18.00;99.90
30047;DHT22;16878;52.542;13.426;2022-10-16T09:58:13;18.00;99.90
30047;DHT22;16878;52.542;13.426;2022-10-16T10:00:39;18.00;99.90
30047;DHT22;16878;52.542;13.426;2022-10-16T10:03:09;18.00;99.90
30047;DHT22;16878;52.542;13.426;2022-10-16T10:05:35;18.00;99.90
30047;DHT22;16878;52.542;13.426;2022-10-16T10:08:03;18.10;99.90
30047;DHT22;16878;52.542;13.426;2022-10-16T10:10:33;18.20;99.90
30047;DHT22;16878;52.542;13.426;2022-10-16T10:12:59;18.30;99.90
30047;DHT22;16878;52.542;13.426;2022-10-16T10:15:25;18.30;99.90
30047;DHT22;16878;52.542;13.426;2022-10-16T10:17:56;18.40;99.90
30047;DHT22;16878;52.542;13.426;2022-10-16T10:20:23;18.50;99.90
30047;DHT22;16878;52.542;13.426;2022-10-16T10:22:50;18.60;99.90
30047;DHT22;16878;52.542;13.426;2022-10-16T10:25:19;18.70;99.90
30047;DHT22;16878;52.542;13.426;2022-10-16T10:30:18;18.60;99.90
30047;DHT22;16878;52.542;13.426;2022-10-16T10:35:41;18.40;99.90
30047;DHT22;16878;52.542;13.426;2022-10-16T10:38:10;18.30;99.90
30047;DHT22;16878;52.542;13.426;2022-10-16T10:40:43;18.30;99.90
30047;DHT22;16878;52.542;13.426;2022-10-16T10:43:47;18.30;99.90
30047;DHT22;16878;52.542;13.426;2022-10-16T10:46:03;18.30;99.90
30047;DHT22;16878;52.542;13.426;2022-10-16T10:51:40;18.40;99.90
30047;DHT22;16878;52.542;13.426;2022-10-16T10:54:16;18.50;99.90
30047;DHT22;16878;52.542;13.426;2022-10-16T10:56:57;18.60;99.90
30047;DHT22;16878;52.542;13.426;2022-10-16T10:59:30;18.70;99.90
30047;DHT22;16878;52.542;13.426;2022-10-16T11:04:45;18.90;99.90
30047;DHT22;16878;52.542;13.426;2022-10-16T11:09:51;19.10;99.90
30047;DHT22;16878;52.542;13.426;2022-10-16T11:12:21;19.20;99.90
30047;DHT22;16878;52.542;13.426;2022-10-16T11:15:35;19.20;99.90
30047;DHT22;16878;52.542;13.426;2022-10-16T11:17:35;19.30;99.90
30047;DHT22;16878;52.542;13.426;2022-10-16T11:20:23;19.30;99.90
30047;DHT22;16878;52.542;13.426;2022-10-16T11:22:51;19.30;99.90
30047;DHT22;16878;52.542;13.426;2022-10-16T11:25:22;19.30;99.90
30047;DHT22;16878;52.542;13.426;2022-10-16T11:27:53;19.30;99.90
30047;DHT22;16878;52.542;13.426;2022-10-16T11:30:20;19.30;99.90
30047;DHT22;16878;52.542;13.426;2022-10-16T11:35:25;19.20;99.90
30047;DHT22;16878;52.542;13.426;2022-10-16T11:37:56;19.00;99.90
30047;DHT22;16878;52.542;13.426;2022-10-16T11:40:31;18.80;99.90
30047;DHT22;16878;52.542;13.426;2022-10-16T11:43:07;18.60;99.90
30047;DHT22;16878;52.542;13.426;2022-10-16T11:45:42;18.40;99.90
30047;DHT22;16878;52.542;13.426;2022-10-16T11:48:12;18.20;99.90
30047;DHT22;16878;52.542;13.426;2022-10-16T11:55:40;18.00;99.90
30047;DHT22;16878;52.542;13.426;2022-10-16T11:58:12;18.00;99.90
30047;DHT22;16878;52.542;13.426;2022-10-16T12:00:40;17.90;99.90
30047;DHT22;16878;52.542;13.426;2022-10-16T12:08:24;17.70;99.90
30047;DHT22;16878;52.542;13.426;2022-10-16T12:10:50;17.60;99.90
30047;DHT22;16878;52.542;13.426;2022-10-16T12:18:33;17.60;99.90
30047;DHT22;16878;52.542;13.426;2022-10-16T12:20:59;17.70;99.90
30047;DHT22;16878;52.542;13.426;2022-10-16T12:23:30;17.70;99.90
30047;DHT22;16878;52.542;13.426;2022-10-16T12:25:56;17.80;99.90
30047;DHT22;16878;52.542;13.426;2022-10-16T12:28:25;17.90;99.90
30047;DHT22;16878;52.542;13.426;2022-10-16T12:31:09;17.90;99.90
30047;DHT22;16878;52.542;13.426;2022-10-16T12:33:39;18.00;99.90
30047;DHT22;16878;52.542;13.426;2022-10-16T12:36:15;18.20;99.90
30047;DHT22;16878;52.542;13.426;2022-10-16T12:38:48;18.40;99.90
30047;DHT22;16878;52.542;13.426;2022-10-16T12:41:24;18.60;99.90
30047;DHT22;16878;52.542;13.426;2022-10-16T12:43:49;18.60;99.90
30047;DHT22;16878;52.542;13.426;2022-10-16T12:48:41;18.70;99.90
30047;DHT22;16878;52.542;13.426;2022-10-16T12:59:01;18.60;99.90
30047;DHT22;16878;52.542;13.426;2022-10-16T13:09:39;18.70;99.90
30047;DHT22;16878;52.542;13.426;2022-10-16T13:14:36;18.70;99.90
30047;DHT22;16878;52.542;13.426;2022-10-16T13:17:26;18.80;99.90
30047;DHT22;16878;52.542;13.426;2022-10-16T13:20:12;18.90;99.90
30047;DHT22;16878;52.542;13.426;2022-10-16T13:26:05;18.70;99.90
30047;DHT22;16878;52.542;13.426;2022-10-16T13:28:07;18.70;99.90
30047;DHT22;16878;52.542;13.426;2022-10-16T13:30:38;18.70;99.90
30047;DHT22;16878;52.542;13.426;2022-10-16T13:33:12;18.70;99.90
30047;DHT22;16878;52.542;13.426;2022-10-16T13:35:45;18.90;99.90
30047;DHT22;16878;52.542;13.426;2022-10-16T13:40:47;18.90;99.90
30047;DHT22;16878;52.542;13.426;2022-10-16T13:43:13;18.80;99.90
30047;DHT22;16878;52.542;13.426;2022-10-16T13:45:39;18.90;99.90
30047;DHT22;16878;52.542;13.426;2022-10-16T13:48:05;18.80;99.90
30047;DHT22;16878;52.542;13.426;2022-10-16T13:50:30;18.80;99.90
30047;DHT22;16878;52.542;13.426;2022-10-16T13:53:03;18.70;99.90
30047;DHT22;16878;52.542;13.426;2022-10-16T13:55:28;18.80;99.90
30047;DHT22;16878;52.542;13.426;2022-10-16T13:58:03;18.70;99.90
30047;DHT22;16878;52.542;13.426;2022-10-16T14:00:29;18.70;99.90
30047;DHT22;16878;52.542;13.426;2022-10-16T14:02:57;18.70;99.90
30047;DHT22;16878;52.542;13.426;2022-10-16T14:05:23;18.70;99.90
30047;DHT22;16878;52.542;13.426;2022-10-16T14:07:49;18.70;99.90
30047;DHT22;16878;52.542;13.426;2022-10-16T14:12:54;18.60;99.90
30047;DHT22;16878;52.542;13.426;2022-10-16T14:15:20;18.50;99.90
30047;DHT22;16878;52.542;13.426;2022-10-16T14:17:47;18.40;99.90
30047;DHT22;16878;52.542;13.426;2022-10-16T14:20:14;18.40;99.90
30047;DHT22;16878;52.542;13.426;2022-10-16T14:22:41;18.40;99.90
30047;DHT22;16878;52.542;13.426;2022-10-16T14:27:45;18.30;99.90
30047;DHT22;16878;52.542;13.426;2022-10-16T14:30:12;18.30;99.90
30047;DHT22;16878;52.542;13.426;2022-10-16T14:32:52;18.30;99.90
30047;DHT22;16878;52.542;13.426;2022-10-16T14:35:31;18.20;99.90
30047;DHT22;16878;52.542;13.426;2022-10-16T14:37:57;18.20;99.90
30047;DHT22;16878;52.542;13.426;2022-10-16T14:40:24;18.20;99.90
30047;DHT22;16878;52.542;13.426;2022-10-16T14:42:50;18.20;99.90
30047;DHT22;16878;52.542;13.426;2022-10-16T14:45:20;18.20;99.90
30047;DHT22;16878;52.542;13.426;2022-10-16T14:47:47;18.20;99.90
30047;DHT22;16878;52.542;13.426;2022-10-16T14:50:13;18.10;99.90
30047;DHT22;16878;52.542;13.426;2022-10-16T14:52:39;18.00;99.90
30047;DHT22;16878;52.542;13.426;2022-10-16T14:55:04;18.00;99.90
30047;DHT22;16878;52.542;13.426;2022-10-16T14:57:31;18.00;99.90
30047;DHT22;16878;52.542;13.426;2022-10-16T14:59:58;17.90;99.90
30047;DHT22;16878;52.542;13.426;2022-10-16T15:02:28;17.80;99.90
30047;DHT22;16878;52.542;13.426;2022-10-16T15:04:54;17.80;99.90
30047;DHT22;16878;52.542;13.426;2022-10-16T15:07:19;17.70;99.90
30047;DHT22;16878;52.542;13.426;2022-10-16T15:09:45;17.70;99.90
30047;DHT22;16878;52.542;13.426;2022-10-16T15:12:10;17.60;99.90
30047;DHT22;16878;52.542;13.426;2022-10-16T15:14:36;17.60;99.90
30047;DHT22;16878;52.542;13.426;2022-10-16T15:17:02;17.60;99.90
30047;DHT22;16878;52.542;13.426;2022-10-16T15:19:28;17.60;99.90
30047;DHT22;16878;52.542;13.426;2022-10-16T15:21:53;17.50;99.90
30047;DHT22;16878;52.542;13.426;2022-10-16T15:24:19;17.50;99.90
30047;DHT22;16878;52.542;13.426;2022-10-16T15:26:45;17.40;99.90
30047;DHT22;16878;52.542;13.426;2022-10-16T15:29:14;17.40;99.90
30047;DHT22;16878;52.542;13.426;2022-10-16T15:31:40;17.30;99.90
30047;DHT22;16878;52.542;13.426;2022-10-16T15:34:08;17.30;99.90
30047;DHT22;16878;52.542;13.426;2022-10-16T15:36:35;17.30;99.90
30047;DHT22;16878;52.542;13.426;2022-10-16T15:39:05;17.20;99.90
30047;DHT22;16878;52.542;13.426;2022-10-16T15:41:31;17.20;99.90
30047;DHT22;16878;52.542;13.426;2022-10-16T15:43:56;17.20;99.90
30047;DHT22;16878;52.542;13.426;2022-10-16T15:46:22;17.10;99.90
30047;DHT22;16878;52.542;13.426;2022-10-16T15:48:49;17.10;99.90
30047;DHT22;16878;52.542;13.426;2022-10-16T15:51:15;17.10;99.90
30047;DHT22;16878;52.542;13.426;2022-10-16T15:53:40;17.10;99.90
30047;DHT22;16878;52.542;13.426;2022-10-16T15:56:07;17.10;99.90
30047;DHT22;16878;52.542;13.426;2022-10-16T15:58:33;17.00;99.90
30047;DHT22;16878;52.542;13.426;2022-10-16T16:00:58;16.90;99.90
30047;DHT22;16878;52.542;13.426;2022-10-16T16:03:26;16.90;99.90
30047;DHT22;16878;52.542;13.426;2022-10-16T16:05:52;16.80;99.90
30047;DHT22;16878;52.542;13.426;2022-10-16T16:08:17;16.80;99.90
30047;DHT22;16878;52.542;13.426;2022-10-16T16:10:43;16.80;99.90
30047;DHT22;16878;52.542;13.426;2022-10-16T16:13:09;16.70;99.90
30047;DHT22;16878;52.542;13.426;2022-10-16T16:15:34;16.70;99.90
30047;DHT22;16878;52.542;13.426;2022-10-16T16:17:59;16.60;99.90
30047;DHT22;16878;52.542;13.426;2022-10-16T16:20:27;16.60;99.90
30047;DHT22;16878;52.542;13.426;2022-10-16T16:22:52;16.60;99.90
30047;DHT22;16878;52.542;13.426;2022-10-16T16:25:18;16.50;99.90
30047;DHT22;16878;52.542;13.426;2022-10-16T16:27:44;16.40;99.90
30047;DHT22;16878;52.542;13.426;2022-10-16T16:30:09;16.40;99.90
30047;DHT22;16878;52.542;13.426;2022-10-16T16:32:35;16.30;99.90
30047;DHT22;16878;52.542;13.426;2022-10-16T16:35:01;16.30;99.90
30047;DHT22;16878;52.542;13.426;2022-10-16T16:37:27;16.40;99.90
30047;DHT22;16878;52.542;13.426;2022-10-16T16:39:53;16.30;99.90
30047;DHT22;16878;52.542;13.426;2022-10-16T16:42:20;16.30;99.90
30047;DHT22;16878;52.542;13.426;2022-10-16T16:44:47;16.30;99.90
30047;DHT22;16878;52.542;13.426;2022-10-16T16:47:12;16.30;99.90
30047;DHT22;16878;52.542;13.426;2022-10-16T16:49:38;16.20;99.90
30047;DHT22;16878;52.542;13.426;2022-10-16T16:52:03;16.20;99.90
30047;DHT22;16878;52.542;13.426;2022-10-16T16:54:29;16.10;99.90
30047;DHT22;16878;52.542;13.426;2022-10-16T16:56:54;16.10;99.90
30047;DHT22;16878;52.542;13.426;2022-10-16T16:59:20;16.00;99.90